Etusivu
METAR-TAF:

METAR-TAF

Lentoasemat :

Biskra, Algeria

Leveyspiiri: 34-48N, Pituuspiiri: 005-44E, korkeus merenpinnasta: 87 m

Tämänhetkinen sää

Tämä raportti tehtiin 1 tunti ja 8 minuuttia sitten, kello 16.00 UTC
Tuuli 2 kn etelästä/kaakosta
Lämpötila 19°C
Kosteus 49%
Ilmanpaine 1020 hPa
Näkyvyys 10 km tai enemmän
ei pilviä alle 1500 m:ssä eikä cumulonimbus-pilviä

METAR: DAUB 051600Z 15002KT CAVOK 19/08 Q1020

Aika: 18:08 (17:08 UTC)

Sääennuste

Tämä raportti tehtiin 6 tuntia ja 8 minuuttia sitten, kello 11.00 UTC
Ennuste voimassa 05. päivästä klo 12 UTC - 06. päivään klo 12 UTC
Tuuli 8 kn idästä/kaakosta
Näkyvyys 10 km tai enemmän
Muutamia pilviä 4000 ft:n korkeudessa

TAF: DAUB 051100Z 0512/0612 12008KT 9999 FEW040

Säähavainnot ja -ennusteet yli 4000 lentoasemalta (METAR- ja TAF-raportit).

Käytössä olevat sääasemat on merkitty karttaan keltaisilla ja punaisilla pisteillä.

Aseta hiiri pisteen päälle nähdäksesi sääaseman nimen.

Klikkaa sitten nähdäksesi säähavainnot ja -ennusteet.

Kartan vaihtaminen: klikkaa mustalla rastilla varustettuja vihreitä pisteitä, niin voit zoomata sisään; viivalla varustettua vihreää pistettä, niin voit zoomata ulos tai vihreitä nuolia, niin pääset viereisille kartoille.


METAR-TAF: